Time;durP1;ratioP1;P1;durP2;ratioP2;P2;SDS_P1;SDS_P2;PMS_P1;PMS_P2;Temp;Humidity;BMP_temperature;BMP_pressure;BME280_temperature;BME280_humidity;BME280_pressure;Samples;Min_cycle;Max_cycle;Signal;HPM_P1;HPM_P2
2022/04/13 00:01:42;;;;;;;7.65;4.30;;;14.20;99.90;;;;;;4954360;29;20055;-63
2022/04/13 00:04:08;;;;;;;7.43;4.03;;;14.20;99.90;;;;;;4954321;29;20060;-63
2022/04/13 00:06:38;;;;;;;5.57;3.58;;;14.00;99.90;;;;;;4955845;29;20089;-64
2022/04/13 00:09:09;;;;;;;4.97;3.22;;;13.90;99.90;;;;;;4955602;29;20453;-63
2022/04/13 00:11:35;;;;;;;4.85;3.40;;;13.70;99.90;;;;;;4955313;28;20046;-63
2022/04/13 00:14:01;;;;;;;6.85;3.67;;;13.60;99.90;;;;;;4953794;29;20408;-63
2022/04/13 00:16:27;;;;;;;6.43;3.88;;;13.50;99.90;;;;;;4954446;29;20081;-63
2022/04/13 00:18:53;;;;;;;5.85;3.15;;;13.40;99.90;;;;;;4955658;28;20039;-63
2022/04/13 00:21:18;;;;;;;8.13;3.75;;;13.60;99.90;;;;;;4955487;29;20047;-63
2022/04/13 00:23:44;;;;;;;9.57;4.53;;;13.40;99.90;;;;;;4938123;29;20486;-64
2022/04/13 00:26:09;;;;;;;8.70;4.90;;;13.60;99.90;;;;;;4954138;29;20126;-63
2022/04/13 00:28:36;;;;;;;9.98;4.90;;;13.60;99.90;;;;;;4954157;29;20039;-63
2022/04/13 00:31:01;;;;;;;11.52;5.13;;;13.70;99.90;;;;;;4950063;29;20035;-63
2022/04/13 00:33:27;;;;;;;9.25;5.55;;;13.70;99.90;;;;;;4919804;29;20058;-63
2022/04/13 00:35:54;;;;;;;9.43;5.40;;;13.70;99.90;;;;;;4936103;29;20051;-63
2022/04/13 00:38:21;;;;;;;8.10;5.20;;;13.60;99.90;;;;;;4936191;29;20032;-63
2022/04/13 00:40:48;;;;;;;9.45;5.40;;;13.70;99.90;;;;;;4934923;29;20135;-63
2022/04/13 00:43:13;;;;;;;10.45;6.10;;;13.50;99.90;;;;;;4934711;29;20405;-63
2022/04/13 00:45:43;;;;;;;8.00;6.05;;;13.80;99.90;;;;;;4946897;29;20130;-64
2022/04/13 00:48:14;;;;;;;9.55;7.07;;;13.70;99.90;;;;;;4955210;29;20051;-63
2022/04/13 00:50:40;;;;;;;13.32;6.35;;;13.80;99.90;;;;;;4953906;29;20077;-63
2022/04/13 00:53:06;;;;;;;12.88;7.35;;;13.60;99.90;;;;;;4954094;29;20074;-63
2022/04/13 00:55:37;;;;;;;12.23;6.63;;;13.70;99.90;;;;;;4954043;29;20130;-62
2022/04/13 00:58:05;;;;;;;11.82;7.35;;;13.70;99.90;;;;;;4953630;29;20039;-63
2022/04/13 01:00:34;;;;;;;10.95;6.57;;;13.60;99.90;;;;;;4955123;29;20054;-62
2022/04/13 01:03:01;;;;;;;10.38;6.38;;;13.70;99.90;;;;;;4953818;29;20058;-62
2022/04/13 01:05:27;;;;;;;12.70;6.93;;;13.60;99.90;;;;;;4971737;28;20063;-63
2022/04/13 01:07:54;;;;;;;11.65;7.32;;;13.60;99.90;;;;;;4974322;28;20093;-63
2022/04/13 01:10:20;;;;;;;15.27;7.97;;;13.80;99.90;;;;;;4973997;28;20078;-63
2022/04/13 01:12:45;;;;;;;13.68;7.20;;;13.70;99.90;;;;;;4956946;28;20068;-64
2022/04/13 01:15:11;;;;;;;11.82;7.95;;;13.60;99.90;;;;;;4974254;28;20042;-64
2022/04/13 01:17:39;;;;;;;13.73;8.00;;;13.80;99.90;;;;;;4974173;28;20416;-64
2022/04/13 01:20:06;;;;;;;15.60;7.57;;;13.70;99.90;;;;;;4974184;28;20051;-63
2022/04/13 01:22:31;;;;;;;13.60;7.95;;;13.80;99.90;;;;;;4973931;28;20043;-63
2022/04/13 01:24:57;;;;;;;15.35;8.48;;;13.80;99.90;;;;;;4977295;28;20197;-63
2022/04/13 01:27:22;;;;;;;18.98;8.20;;;13.70;99.90;;;;;;4977814;28;20620;-63
2022/04/13 01:29:49;;;;;;;14.70;8.20;;;13.70;99.90;;;;;;4944246;28;20051;-63
2022/04/13 01:32:15;;;;;;;13.13;8.02;;;13.70;99.90;;;;;;4978001;28;20053;-63
2022/04/13 01:34:48;;;;;;;12.60;7.68;;;13.70;99.90;;;;;;4977942;28;20039;-63
2022/04/13 01:37:14;;;;;;;13.02;8.45;;;13.70;99.90;;;;;;4977699;28;20046;-63
2022/04/13 01:39:40;;;;;;;18.02;8.40;;;13.80;99.90;;;;;;4944612;28;20043;-63
2022/04/13 01:42:06;;;;;;;12.95;7.75;;;13.70;99.90;;;;;;4960234;28;20042;-63
2022/04/13 01:44:32;;;;;;;15.65;8.55;;;13.50;99.90;;;;;;4960405;28;20426;-64
2022/04/13 01:46:57;;;;;;;14.32;8.27;;;13.70;99.90;;;;;;4960517;28;20043;-63
2022/04/13 01:49:23;;;;;;;18.30;10.80;;;13.70;99.90;;;;;;4960188;28;20553;-63
2022/04/13 01:51:48;;;;;;;17.10;9.07;;;13.70;99.90;;;;;;4944118;28;20049;-63
2022/04/13 01:54:14;;;;;;;12.35;8.52;;;13.60;99.90;;;;;;4959970;28;20042;-63
2022/04/13 01:56:39;;;;;;;13.85;8.73;;;13.50;99.90;;;;;;4944085;28;20043;-64
2022/04/13 01:59:05;;;;;;;11.38;5.70;;;13.50;99.90;;;;;;4977645;28;20038;-64
2022/04/13 02:01:31;;;;;;;7.95;6.00;;;13.50;99.90;;;;;;4977183;28;20038;-63
2022/04/13 02:03:57;;;;;;;11.45;6.18;;;13.50;99.90;;;;;;4959843;28;20728;-63
2022/04/13 02:06:22;;;;;;;9.90;6.32;;;13.10;99.90;;;;;;4977203;28;20081;-62
2022/04/13 02:08:48;;;;;;;11.60;7.57;;;12.80;99.90;;;;;;4959975;28;20489;-63
2022/04/13 02:11:14;;;;;;;14.77;7.40;;;12.90;99.90;;;;;;4959913;28;20051;-63
2022/04/13 02:13:40;;;;;;;12.18;7.80;;;13.10;99.90;;;;;;4959912;28;20047;-63
2022/04/13 02:16:06;;;;;;;12.15;7.32;;;12.90;99.90;;;;;;4961454;28;20500;-63
2022/04/13 02:18:31;;;;;;;11.85;7.68;;;12.80;99.90;;;;;;4940510;29;20493;-62
2022/04/13 02:20:58;;;;;;;8.82;6.93;;;12.80;99.90;;;;;;4924861;29;20122;-63
2022/04/13 02:23:23;;;;;;;8.02;6.57;;;12.80;99.90;;;;;;4957725;29;20035;-63
2022/04/13 02:25:49;;;;;;;10.80;7.57;;;12.70;99.90;;;;;;4940341;29;20548;-63
2022/04/13 02:28:15;;;;;;;14.75;7.85;;;12.70;99.90;;;;;;4940546;29;20410;-63
2022/04/13 02:30:40;;;;;;;9.65;6.63;;;12.70;99.90;;;;;;4957361;29;20510;-63
2022/04/13 02:33:06;;;;;;;11.23;6.55;;;12.60;99.90;;;;;;4940417;29;20098;-62
2022/04/13 02:35:31;;;;;;;11.48;7.35;;;12.60;99.90;;;;;;4956667;28;20114;-63
2022/04/13 02:37:57;;;;;;;10.73;7.15;;;12.60;99.90;;;;;;4957342;29;20049;-62
2022/04/13 02:40:23;;;;;;;10.15;7.57;;;12.60;99.90;;;;;;4940063;29;20054;-63
2022/04/13 02:42:48;;;;;;;10.55;7.75;;;12.70;99.90;;;;;;4957355;29;20039;-64
2022/04/13 02:45:14;;;;;;;14.18;7.55;;;12.50;99.90;;;;;;4965027;28;20030;-63
2022/04/13 02:47:39;;;;;;;15.68;9.30;;;12.50;99.90;;;;;;4976618;28;20151;-64
2022/04/13 02:50:06;;;;;;;19.38;10.10;;;12.70;99.90;;;;;;4958949;28;20151;-64
2022/04/13 02:52:32;;;;;;;13.35;9.73;;;12.60;99.90;;;;;;4942960;28;20042;-64
2022/04/13 02:54:58;;;;;;;17.17;10.50;;;12.60;99.90;;;;;;4958870;28;20047;-64
2022/04/13 02:57:24;;;;;;;19.80;10.55;;;12.50;99.90;;;;;;4976600;28;20601;-64
2022/04/13 02:59:50;;;;;;;15.45;10.00;;;12.60;99.90;;;;;;4958869;28;20047;-64
2022/04/13 03:02:16;;;;;;;18.95;10.98;;;12.60;99.90;;;;;;4976233;28;20123;-64
2022/04/13 03:04:43;;;;;;;19.50;11.45;;;12.60;99.90;;;;;;4942711;28;20123;-64
2022/04/13 03:07:11;;;;;;;19.42;12.27;;;12.70;99.90;;;;;;4976086;28;20034;-63
2022/04/13 03:09:36;;;;;;;20.15;12.60;;;12.70;99.90;;;;;;4958685;28;20062;-63
2022/04/13 03:12:02;;;;;;;19.77;12.18;;;12.80;99.90;;;;;;4958800;28;20042;-62
2022/04/13 03:14:28;;;;;;;20.25;12.02;;;12.60;99.90;;;;;;4958784;28;20047;-62
2022/04/13 03:16:53;;;;;;;19.52;12.15;;;12.50;99.90;;;;;;4976049;28;20512;-62
2022/04/13 03:19:19;;;;;;;24.90;12.13;;;12.50;99.90;;;;;;4942472;28;20047;-63
2022/04/13 03:21:50;;;;;;;20.33;12.13;;;12.60;99.90;;;;;;4975776;28;20046;-63
2022/04/13 03:24:15;;;;;;;25.45;14.32;;;12.60;99.90;;;;;;4975865;28;20050;-62
2022/04/13 03:26:41;;;;;;;18.63;11.93;;;12.50;99.90;;;;;;4975930;28;20034;-62
2022/04/13 03:29:06;;;;;;;21.50;12.35;;;12.70;99.90;;;;;;4958719;28;20121;-63
2022/04/13 03:31:32;;;;;;;22.60;12.85;;;12.70;99.90;;;;;;4975655;28;20039;-63
2022/04/13 03:33:57;;;;;;;25.58;12.07;;;12.60;99.90;;;;;;4975596;28;20475;-63
2022/04/13 03:36:23;;;;;;;19.45;11.30;;;12.70;99.90;;;;;;4958207;28;20564;-63
2022/04/13 03:38:48;;;;;;;22.80;12.90;;;12.80;99.90;;;;;;4975339;28;20114;-63
2022/04/13 03:41:14;;;;;;;19.40;12.23;;;12.60;99.90;;;;;;4975643;28;20050;-62
2022/04/13 03:43:39;;;;;;;19.00;12.02;;;12.70;99.90;;;;;;4958228;28;20038;-63
2022/04/13 03:46:05;;;;;;;21.75;12.93;;;12.60;99.90;;;;;;4975500;28;20047;-63
2022/04/13 03:48:30;;;;;;;19.45;13.20;;;12.50;99.90;;;;;;4974346;28;20118;-63
2022/04/13 03:50:57;;;;;;;19.60;12.15;;;12.60;99.90;;;;;;4957888;28;20041;-63
2022/04/13 03:53:23;;;;;;;19.13;11.85;;;12.60;99.90;;;;;;4975224;28;20053;-63
2022/04/13 03:55:49;;;;;;;23.45;14.02;;;12.40;99.90;;;;;;4957835;28;20035;-63
2022/04/13 03:58:14;;;;;;;21.08;12.55;;;12.60;99.90;;;;;;4958198;28;20035;-63
2022/04/13 04:00:40;;;;;;;25.52;13.57;;;12.50;99.90;;;;;;4957736;28;20130;-63
2022/04/13 04:03:05;;;;;;;23.23;12.45;;;12.40;99.90;;;;;;4975219;28;20047;-63
2022/04/13 04:05:31;;;;;;;20.75;11.60;;;12.40;99.90;;;;;;4975019;28;20086;-63
2022/04/13 04:07:56;;;;;;;21.25;11.57;;;12.40;99.90;;;;;;4975032;28;20462;-62
2022/04/13 04:10:22;;;;;;;19.17;11.45;;;12.40;99.90;;;;;;4957583;28;20560;-62
2022/04/13 04:12:48;;;;;;;25.55;13.05;;;12.40;99.90;;;;;;4974993;28;20516;-63
2022/04/13 04:15:13;;;;;;;21.83;13.75;;;12.30;99.90;;;;;;4974863;28;20066;-62
2022/04/13 04:17:39;;;;;;;23.70;14.20;;;12.30;99.90;;;;;;4974890;28;20042;-63
2022/04/13 04:20:06;;;;;;;16.42;11.48;;;;;;;;;;4957528;28;20050;-63
2022/04/13 04:22:32;;;;;;;21.48;13.25;;;12.40;99.90;;;;;;4957577;28;20050;-63
2022/04/13 04:25:01;;;;;;;25.98;13.15;;;12.40;99.90;;;;;;4957330;28;20057;-63
2022/04/13 04:27:27;;;;;;;24.70;12.63;;;12.40;99.90;;;;;;4956218;28;20050;-63
2022/04/13 04:29:52;;;;;;;18.80;12.50;;;12.40;99.90;;;;;;4955075;29;20050;-63
2022/04/13 04:32:18;;;;;;;20.05;11.20;;;12.30;99.90;;;;;;4954902;28;20043;-62
2022/04/13 04:34:43;;;;;;;19.25;11.57;;;12.20;99.90;;;;;;4955393;29;20094;-62
2022/04/13 04:37:09;;;;;;;17.38;10.88;;;12.30;99.90;;;;;;4955164;29;20046;-63
2022/04/13 04:39:34;;;;;;;12.55;10.02;;;12.10;99.90;;;;;;4940057;28;20039;-63
2022/04/13 04:42:02;;;;;;;14.48;10.00;;;;;;;;;;4936918;28;20042;-62
2022/04/13 04:44:27;;;;;;;16.77;10.73;;;12.10;99.90;;;;;;4938911;28;20051;-62
2022/04/13 04:46:53;;;;;;;16.33;9.50;;;12.10;99.90;;;;;;4954617;28;20105;-63
2022/04/13 04:49:19;;;;;;;20.45;10.70;;;11.90;99.90;;;;;;4954583;28;20441;-63
2022/04/13 04:51:44;;;;;;;13.95;9.50;;;11.90;99.90;;;;;;4957323;28;20043;-63
2022/04/13 04:54:10;;;;;;;19.55;10.65;;;11.70;99.90;;;;;;4953886;28;20039;-62
2022/04/13 04:56:35;;;;;;;16.85;11.88;;;11.80;99.90;;;;;;4957952;28;20039;-65
2022/04/13 04:59:01;;;;;;;20.77;11.30;;;11.80;99.90;;;;;;4956052;28;20133;-65
2022/04/13 05:01:27;;;;;;;17.17;11.15;;;11.90;99.90;;;;;;4947188;29;20491;-65
2022/04/13 05:03:52;;;;;;;19.88;11.57;;;11.80;99.90;;;;;;4934321;29;20535;-65
2022/04/13 05:06:21;;;;;;;21.52;13.13;;;11.80;99.90;;;;;;4935083;29;20040;-65
2022/04/13 05:08:48;;;;;;;20.60;11.45;;;11.80;99.90;;;;;;4934956;29;20043;-66
2022/04/13 05:11:14;;;;;;;24.65;15.10;;;11.60;99.90;;;;;;4935843;29;20035;-66
2022/04/13 05:13:39;;;;;;;23.00;13.98;;;11.70;99.90;;;;;;4934671;29;20087;-66
2022/04/13 05:16:06;;;;;;;22.70;13.02;;;;;;;;;;4934631;29;20044;-66
2022/04/13 05:18:32;;;;;;;20.27;12.63;;;11.70;99.90;;;;;;4918399;29;20040;-66
2022/04/13 05:20:58;;;;;;;21.17;12.55;;;11.90;99.90;;;;;;4934325;29;20043;-65
2022/04/13 05:23:23;;;;;;;20.38;12.95;;;11.80;99.90;;;;;;4934130;29;20040;-65
2022/04/13 05:25:49;;;;;;;22.67;12.25;;;11.60;99.90;;;;;;4934104;29;20035;-66
2022/04/13 05:28:15;;;;;;;22.50;12.93;;;11.80;99.90;;;;;;4922364;29;20067;-65
2022/04/13 05:30:40;;;;;;;22.58;13.10;;;11.80;99.90;;;;;;4949860;29;20050;-65
2022/04/13 05:33:06;;;;;;;21.50;13.70;;;11.90;99.90;;;;;;4942863;28;20438;-68
2022/04/13 05:35:32;;;;;;;27.77;14.60;;;11.80;99.90;;;;;;4935858;29;20054;-68
2022/04/13 05:37:59;;;;;;;24.80;14.90;;;11.80;99.90;;;;;;4946090;29;20513;-64
2022/04/13 05:40:24;;;;;;;25.88;15.27;;;12.00;99.90;;;;;;4935676;29;20059;-65
2022/04/13 05:42:53;;;;;;;26.35;14.60;;;12.00;99.90;;;;;;4935554;29;20039;-65
2022/04/13 05:45:19;;;;;;;23.92;14.65;;;12.20;99.90;;;;;;4938204;29;20497;-62
2022/04/13 05:47:45;;;;;;;19.52;13.07;;;;;;;;;;4933114;28;20171;-62
2022/04/13 05:50:12;;;;;;;17.08;12.02;;;12.20;99.90;;;;;;4932667;29;20075;-62
2022/04/13 05:52:39;;;;;;;20.92;12.05;;;12.00;99.90;;;;;;4934171;29;20047;-63
2022/04/13 05:55:06;;;;;;;19.90;11.98;;;12.00;99.90;;;;;;4935415;29;20517;-62
2022/04/13 05:57:31;;;;;;;18.15;12.52;;;12.00;99.90;;;;;;4934007;29;20402;-64
2022/04/13 05:59:57;;;;;;;18.27;13.50;;;12.10;99.90;;;;;;4933745;29;20048;-65
2022/04/13 06:02:23;;;;;;;21.65;14.35;;;12.20;99.90;;;;;;4933767;29;20454;-63
2022/04/13 06:04:48;;;;;;;21.67;15.15;;;12.30;99.90;;;;;;4933723;29;20063;-63
2022/04/13 06:07:14;;;;;;;24.65;15.27;;;;;;;;;;4934582;29;20122;-64
2022/04/13 06:09:40;;;;;;;24.30;14.60;;;12.40;99.90;;;;;;4943461;28;20050;-65
2022/04/13 06:12:06;;;;;;;20.05;14.48;;;12.40;99.90;;;;;;4923238;29;20039;-65
2022/04/13 06:14:32;;;;;;;28.20;15.85;;;;;;;;;;4946950;28;20039;-65
2022/04/13 06:16:58;;;;;;;26.15;18.17;;;;;;;;;;4946425;28;20490;-64
2022/04/13 06:19:24;;;;;;;28.15;17.73;;;;;;;;;;4946828;28;20154;-64
2022/04/13 06:21:50;;;;;;;29.13;18.40;;;;;;;;;;4945277;28;20301;-62
2022/04/13 06:24:16;;;;;;;27.45;17.48;;;12.60;99.90;;;;;;4930014;28;20050;-64
2022/04/13 06:26:42;;;;;;;28.42;18.77;;;;;;;;;;4947196;28;20572;-65
2022/04/13 06:29:08;;;;;;;30.73;19.45;;;12.60;99.90;;;;;;4948481;28;20061;-64
2022/04/13 06:31:34;;;;;;;27.38;17.77;;;;;;;;;;4947376;28;20498;-66
2022/04/13 06:34:00;;;;;;;32.45;19.42;;;;;;;;;;4948893;28;20512;-65
2022/04/13 06:36:26;;;;;;;29.80;18.23;;;;;;;;;;4949718;28;20051;-65
2022/04/13 06:38:52;;;;;;;29.10;17.90;;;;;;;;;;4946900;28;20687;-64
2022/04/13 06:41:18;;;;;;;31.63;18.20;;;;;;;;;;4950102;28;20054;-63
2022/04/13 06:43:44;;;;;;;26.13;17.88;;;;;;;;;;4946375;28;20141;-64
2022/04/13 06:46:10;;;;;;;26.25;17.10;;;;;;;;;;4948289;28;20057;-64
2022/04/13 06:48:35;;;;;;;28.20;15.82;;;13.20;99.90;;;;;;4947063;28;20806;-64
2022/04/13 06:51:03;;;;;;;21.85;15.50;;;13.40;99.90;;;;;;4947047;28;20051;-62
2022/04/13 06:53:28;;;;;;;22.42;14.25;;;13.40;99.90;;;;;;4944778;28;20814;-64
2022/04/13 06:55:54;;;;;;;25.13;13.55;;;;;;;;;;4946737;28;20097;-64
2022/04/13 06:58:21;;;;;;;24.60;15.38;;;;;;;;;;4948420;28;20146;-65
2022/04/13 07:00:47;;;;;;;24.08;14.40;;;13.60;99.90;;;;;;4949808;28;20078;-63
2022/04/13 07:03:13;;;;;;;23.77;13.85;;;;;;;;;;4947152;28;20138;-64
2022/04/13 07:05:39;;;;;;;23.13;12.88;;;13.80;99.90;;;;;;4967213;28;20101;-65
2022/04/13 07:08:05;;;;;;;21.38;13.63;;;13.70;99.90;;;;;;4952697;28;20432;-65
2022/04/13 07:10:32;;;;;;;19.85;13.10;;;14.00;99.90;;;;;;4949604;28;20438;-66
2022/04/13 07:12:58;;;;;;;19.98;11.82;;;14.00;99.90;;;;;;4968658;28;20586;-65
2022/04/13 07:15:24;;;;;;;19.27;11.30;;;14.10;99.90;;;;;;4967569;28;20039;-64
2022/04/13 07:17:50;;;;;;;22.40;11.57;;;;;;;;;;4968135;28;20436;-64
2022/04/13 07:20:17;;;;;;;22.55;12.88;;;14.10;99.90;;;;;;4950870;28;20062;-65
2022/04/13 07:22:47;;;;;;;28.70;13.23;;;14.20;99.90;;;;;;4968987;28;20116;-64
2022/04/13 07:25:13;;;;;;;20.10;11.65;;;14.40;99.90;;;;;;4968207;28;20058;-64
2022/04/13 07:27:39;;;;;;;19.65;11.15;;;14.20;99.90;;;;;;4969470;28;20042;-65
2022/04/13 07:30:05;;;;;;;22.45;11.38;;;;;;;;;;4952442;28;20576;-63
2022/04/13 07:32:31;;;;;;;16.67;11.65;;;;;;;;;;4966476;28;20568;-63
2022/04/13 07:35:02;;;;;;;17.20;10.05;;;14.60;99.90;;;;;;4948537;28;20057;-64
2022/04/13 07:37:29;;;;;;;17.02;10.07;;;14.50;99.90;;;;;;4953373;28;20051;-66
2022/04/13 07:39:55;;;;;;;16.08;10.50;;;;;;;;;;4967753;28;20073;-65
2022/04/13 07:42:25;;;;;;;23.23;10.57;;;14.30;99.90;;;;;;4949541;28;20093;-66
2022/04/13 07:44:51;;;;;;;15.75;9.98;;;14.40;99.90;;;;;;4934446;28;20194;-64
2022/04/13 07:47:21;;;;;;;25.05;10.52;;;;;;;;;;4930807;28;20454;-64
2022/04/13 07:49:47;;;;;;;17.48;10.60;;;;;;;;;;4946928;28;20500;-64
2022/04/13 07:52:14;;;;;;;22.42;11.43;;;14.50;99.90;;;;;;4946844;28;20058;-65
2022/04/13 07:54:39;;;;;;;24.27;11.55;;;14.60;99.90;;;;;;4962532;28;20670;-66
2022/04/13 07:57:05;;;;;;;17.25;9.80;;;;;;;;;;4948773;28;20108;-67
2022/04/13 07:59:31;;;;;;;18.60;9.73;;;14.70;99.90;;;;;;4947938;28;20128;-65
2022/04/13 08:01:57;;;;;;;16.92;10.77;;;14.70;99.90;;;;;;4949112;28;20050;-65
2022/04/13 08:04:23;;;;;;;15.02;9.52;;;;;;;;;;4965240;28;20058;-64
2022/04/13 08:06:49;;;;;;;16.70;9.52;;;15.10;99.90;;;;;;4946341;28;20074;-66
2022/04/13 08:09:14;;;;;;;16.48;9.40;;;15.50;99.90;;;;;;4947072;28;20054;-66
2022/04/13 08:11:40;;;;;;;16.20;10.88;;;15.60;99.90;;;;;;4932545;28;20050;-66
2022/04/13 08:14:07;;;;;;;23.60;10.00;;;15.80;99.90;;;;;;4948669;28;20054;-65
2022/04/13 08:16:32;;;;;;;13.82;7.90;;;16.20;99.90;;;;;;4944266;28;20073;-64
2022/04/13 08:18:58;;;;;;;18.77;9.80;;;16.00;99.90;;;;;;4959422;28;20131;-64
2022/04/13 08:21:23;;;;;;;14.32;8.25;;;16.20;99.90;;;;;;4946642;28;20466;-64
2022/04/13 08:23:49;;;;;;;12.80;8.75;;;16.20;99.90;;;;;;4962504;28;20053;-64
2022/04/13 08:26:15;;;;;;;12.30;8.30;;;16.30;99.90;;;;;;4943763;28;20138;-64
2022/04/13 08:28:40;;;;;;;15.43;9.10;;;16.40;99.90;;;;;;4945908;28;20154;-63
2022/04/13 08:31:09;;;;;;;11.73;8.15;;;16.20;99.90;;;;;;4961373;28;20046;-63
2022/04/13 08:33:35;;;;;;;15.52;8.20;;;16.50;99.90;;;;;;4944137;28;20061;-64
2022/04/13 08:36:00;;;;;;;13.88;9.38;;;16.60;99.90;;;;;;4946268;28;20245;-64
2022/04/13 08:38:26;;;;;;;12.48;7.30;;;16.80;99.90;;;;;;4945707;28;20046;-65
2022/04/13 08:41:02;;;;;;;12.15;8.30;;;16.60;99.90;;;;;;4930867;28;20045;-63
2022/04/13 08:43:33;;;;;;;13.50;7.80;;;17.10;99.90;;;;;;4962349;28;20501;-65
2022/04/13 08:46:00;;;;;;;15.30;8.25;;;17.00;99.90;;;;;;4927509;28;20058;-67
2022/04/13 08:48:27;;;;;;;16.63;9.45;;;16.90;99.90;;;;;;4963173;28;20058;-66
2022/04/13 08:50:58;;;;;;;13.50;7.53;;;16.90;99.90;;;;;;4944258;28;20046;-66
2022/04/13 08:53:29;;;;;;;16.85;7.88;;;16.80;99.90;;;;;;4943061;28;20073;-65
2022/04/13 08:55:57;;;;;;;9.75;5.75;;;16.70;99.90;;;;;;4960487;28;20394;-65
2022/04/13 08:58:40;;;;;;;13.00;7.10;;;17.00;99.90;;;;;;4962631;28;20085;-64
2022/04/13 09:01:15;;;;;;;17.98;7.60;;;17.00;99.90;;;;;;4937681;28;20046;-64
2022/04/13 09:03:46;;;;;;;10.30;7.00;;;17.30;99.90;;;;;;4940484;28;20066;-64
2022/04/13 09:06:13;;;;;;;9.80;6.10;;;17.60;99.90;;;;;;4939493;28;20525;-64
2022/04/13 09:08:50;;;;;;;8.27;5.30;;;17.70;99.90;;;;;;4942831;28;20056;-64
2022/04/13 09:11:16;;;;;;;11.80;5.75;;;17.80;99.90;;;;;;4957538;28;21260;-64
2022/04/13 09:13:44;;;;;;;9.65;6.15;;;17.80;99.90;;;;;;4941516;28;20070;-64
2022/04/13 09:16:11;;;;;;;10.15;6.03;;;17.90;99.90;;;;;;4937942;28;20042;-64
2022/04/13 09:18:36;;;;;;;13.98;5.30;;;18.20;99.90;;;;;;4941695;28;20448;-63
2022/04/13 09:21:02;;;;;;;10.98;6.10;;;18.30;99.90;;;;;;4940950;28;20132;-64
2022/04/13 09:23:31;;;;;;;11.43;6.03;;;18.30;99.90;;;;;;4940297;28;20617;-63
2022/04/13 09:25:58;;;;;;;10.63;6.03;;;18.60;99.90;;;;;;4958665;28;20046;-63
2022/04/13 09:28:24;;;;;;;12.85;6.15;;;18.70;99.90;;;;;;4940792;28;20818;-64
2022/04/13 09:30:52;;;;;;;15.55;6.97;;;18.70;99.90;;;;;;4957012;28;20047;-63
2022/04/13 09:33:18;;;;;;;14.35;6.60;;;19.00;99.90;;;;;;4958936;28;20124;-64
2022/04/13 09:35:43;;;;;;;8.70;5.50;;;19.00;99.90;;;;;;4938744;28;20382;-64
2022/04/13 09:38:09;;;;;;;11.85;5.38;;;19.00;99.90;;;;;;4957418;28;20093;-64
2022/04/13 09:40:39;;;;;;;11.70;5.85;;;19.10;99.90;;;;;;4954610;28;20049;-64
2022/04/13 09:43:14;;;;;;;8.48;4.32;;;19.40;99.90;;;;;;4958249;28;20130;-64
2022/04/13 09:45:44;;;;;;;8.25;3.95;;;19.60;99.90;;;;;;4942549;28;20050;-66
2022/04/13 09:48:13;;;;;;;7.22;3.55;;;19.60;99.90;;;;;;4961471;28;20972;-64
2022/04/13 09:50:40;;;;;;;7.22;3.00;;;19.90;99.90;;;;;;4960667;28;20117;-64
2022/04/13 09:53:08;;;;;;;10.18;3.15;;;19.60;99.90;;;;;;4944185;28;20042;-64
2022/04/13 09:55:41;;;;;;;6.60;3.22;;;19.40;99.90;;;;;;4927733;28;20516;-65
2022/04/13 09:58:12;;;;;;;6.47;3.20;;;18.90;99.90;;;;;;4951919;28;20132;-64
2022/04/13 10:00:38;;;;;;;8.50;3.55;;;18.80;99.90;;;;;;4948220;28;20457;-66
2022/04/13 10:03:13;;;;;;;7.55;3.10;;;18.50;99.90;;;;;;4949506;28;20416;-64
2022/04/13 10:05:42;;;;;;;10.60;4.50;;;18.60;99.90;;;;;;4949541;28;20062;-64
2022/04/13 10:08:10;;;;;;;5.57;2.30;;;18.80;99.90;;;;;;4949610;28;20464;-64
2022/04/13 10:10:40;;;;;;;10.80;3.58;;;18.90;99.90;;;;;;4946827;28;20062;-64
2022/04/13 10:13:06;;;;;;;7.97;3.88;;;18.80;99.90;;;;;;4965727;28;20034;-65
2022/04/13 10:15:31;;;;;;;9.50;5.10;;;18.90;99.90;;;;;;4965888;28;20081;-64
2022/04/13 10:18:01;;;;;;;6.60;2.17;;;18.80;99.90;;;;;;4935455;28;20137;-64
2022/04/13 10:20:46;;;;;;;9.43;2.78;;;19.00;99.90;;;;;;4966876;28;20054;-65
2022/04/13 10:23:13;;;;;;;6.32;2.85;;;18.70;99.90;;;;;;4966382;28;20503;-64
2022/04/13 10:25:40;;;;;;;9.27;3.05;;;18.60;99.90;;;;;;4944695;28;20055;-64
2022/04/13 10:28:06;;;;;;;5.75;1.95;;;18.80;99.90;;;;;;4946704;28;20150;-64
2022/04/13 10:30:34;;;;;;;7.03;2.40;;;18.30;99.90;;;;;;4948827;28;20054;-64
2022/04/13 10:33:02;;;;;;;7.82;2.75;;;18.70;99.90;;;;;;4950472;28;20397;-65
2022/04/13 10:35:29;;;;;;;5.93;3.00;;;19.00;99.90;;;;;;4965321;28;20038;-64
2022/04/13 10:37:58;;;;;;;8.88;4.03;;;19.00;99.90;;;;;;4949349;28;20061;-65
2022/04/13 10:40:25;;;;;;;9.75;3.20;;;19.30;99.90;;;;;;4966654;28;20560;-65
2022/04/13 10:42:52;;;;;;;10.32;3.38;;;19.30;99.90;;;;;;4967913;28;20061;-65
2022/04/13 10:45:19;;;;;;;8.43;4.03;;;19.30;99.90;;;;;;4950250;28;20050;-66
2022/04/13 10:47:54;;;;;;;8.35;3.75;;;19.50;99.90;;;;;;4962476;28;20084;-64
2022/04/13 10:50:30;;;;;;;;;;;19.50;99.90;;;;;;4951769;28;20055;-65
2022/04/13 10:53:03;;;;;;;8.40;3.85;;;19.50;99.90;;;;;;4949905;28;19926;-65
2022/04/13 10:55:33;;;;;;;13.43;4.53;;;19.50;99.90;;;;;;4949107;28;20061;-64
2022/04/13 10:58:21;;;;;;;7.97;4.03;;;19.10;99.90;;;;;;4948912;28;20088;-65
2022/04/13 11:00:49;;;;;;;12.15;4.50;;;19.10;99.90;;;;;;4966306;28;20485;-64
2022/04/13 11:03:17;;;;;;;8.90;4.10;;;18.80;99.90;;;;;;4948020;28;20057;-65
2022/04/13 11:05:43;;;;;;;19.02;8.10;;;18.90;99.90;;;;;;4946232;28;20063;-64
2022/04/13 11:08:26;;;;;;;15.95;8.27;;;19.00;99.90;;;;;;4966324;28;20066;-66
2022/04/13 11:10:53;;;;;;;16.05;7.65;;;18.80;99.90;;;;;;4965253;28;20057;-65
2022/04/13 11:13:19;;;;;;;16.77;8.18;;;18.90;99.90;;;;;;4967644;28;20046;-65
2022/04/13 11:15:50;;;;;;;18.67;8.50;;;18.80;99.90;;;;;;4948211;28;20505;-65
2022/04/13 11:18:20;;;;;;;14.20;7.70;;;18.80;99.90;;;;;;4967998;28;20157;-65
2022/04/13 11:21:01;;;;;;;16.50;8.63;;;18.70;99.90;;;;;;4948738;28;20058;-64
2022/04/13 11:23:48;;;;;;;17.20;8.43;;;18.90;99.90;;;;;;4948432;28;20054;-65
2022/04/13 11:26:14;;;;;;;17.52;9.52;;;18.30;99.90;;;;;;4964310;28;20058;-65
2022/04/13 11:28:40;;;;;;;12.90;6.40;;;18.30;99.90;;;;;;4947425;28;20046;-64
2022/04/13 11:31:10;;;;;;;13.52;6.43;;;18.00;99.90;;;;;;4930834;28;20057;-64
2022/04/13 11:33:56;;;;;;;10.00;4.50;;;18.00;99.90;;;;;;4965970;28;20047;-64
2022/04/13 11:36:24;;;;;;;10.52;3.60;;;17.90;99.90;;;;;;4964330;28;20054;-64
2022/04/13 11:38:53;;;;;;;11.57;4.03;;;18.00;99.90;;;;;;4949614;28;20488;-64
2022/04/13 11:41:20;;;;;;;7.03;3.40;;;17.90;99.90;;;;;;4949405;28;20839;-63
2022/04/13 11:43:47;;;;;;;9.40;3.40;;;17.70;99.90;;;;;;4948080;28;20110;-64
2022/04/13 11:46:36;;;;;;;16.20;5.28;;;17.30;99.90;;;;;;4964972;28;20046;-63
2022/04/13 11:49:04;;;;;;;11.80;4.57;;;17.30;99.90;;;;;;4965273;28;20133;-64
2022/04/13 11:51:30;;;;;;;10.38;3.70;;;17.30;99.90;;;;;;4964876;28;20056;-63
2022/04/13 11:54:11;;;;;;;12.70;4.15;;;17.50;99.90;;;;;;4947398;28;20054;-64
2022/04/13 11:56:50;;;;;;;9.88;3.80;;;17.20;99.90;;;;;;4966140;28;20479;-63
2022/04/13 11:59:17;;;;;;;11.85;4.60;;;17.50;99.90;;;;;;4947862;28;20047;-63
2022/04/13 12:01:55;;;;;;;9.23;4.97;;;17.50;99.90;;;;;;4965053;28;20823;-63
2022/04/13 12:04:24;;;;;;;12.45;4.57;;;17.20;99.90;;;;;;4947845;28;20070;-64
2022/04/13 12:06:51;;;;;;;15.02;5.13;;;17.30;99.90;;;;;;4963176;28;20723;-64
2022/04/13 12:09:16;;;;;;;13.48;5.68;;;17.30;99.90;;;;;;4965548;28;20061;-64
2022/04/13 12:11:45;;;;;;;16.27;5.30;;;17.20;99.90;;;;;;4964662;28;20042;-63
2022/04/13 12:14:23;;;;;;;13.32;5.18;;;17.10;99.90;;;;;;4946155;28;20065;-63
2022/04/13 12:16:50;;;;;;;12.70;5.03;;;17.20;99.90;;;;;;4962760;28;20404;-63
2022/04/13 12:19:15;;;;;;;11.82;5.35;;;17.50;99.90;;;;;;4962070;28;20137;-63
2022/04/13 12:21:41;;;;;;;10.48;5.43;;;17.40;99.90;;;;;;4964441;28;20057;-63
2022/04/13 12:24:11;;;;;;;15.18;5.88;;;17.20;99.90;;;;;;4963487;28;20760;-63
2022/04/13 12:26:42;;;;;;;12.80;4.93;;;17.10;99.90;;;;;;4946948;28;20046;-64
2022/04/13 12:29:18;;;;;;;11.70;5.20;;;17.10;99.90;;;;;;4947431;28;20050;-64
2022/04/13 12:32:02;;;;;;;17.20;6.85;;;17.10;99.90;;;;;;4965327;28;20047;-64
2022/04/13 12:34:28;;;;;;;12.18;5.30;;;17.10;99.90;;;;;;4963838;28;20109;-64
2022/04/13 12:37:01;;;;;;;12.77;5.53;;;17.10;99.90;;;;;;4927124;28;20057;-64
2022/04/13 12:39:29;;;;;;;12.43;4.78;;;16.70;99.90;;;;;;4964401;28;20491;-64
2022/04/13 12:41:55;;;;;;;12.90;4.90;;;16.70;99.90;;;;;;4965310;28;20097;-64
2022/04/13 12:44:21;;;;;;;13.13;5.68;;;16.70;99.90;;;;;;4945538;28;20046;-63